sensor_id;sensor_type;location;lat;lon;timestamp;P1;durP1;ratioP1;P2;durP2;ratioP2
6825;SDS011;3451;52.476;13.316;2022-12-18T00:01:14;40.33;;;16.60;;
6825;SDS011;3451;52.476;13.316;2022-12-18T00:03:40;45.00;;;18.37;;
6825;SDS011;3451;52.476;13.316;2022-12-18T00:06:07;44.10;;;16.27;;
6825;SDS011;3451;52.476;13.316;2022-12-18T00:08:34;43.60;;;16.97;;
6825;SDS011;3451;52.476;13.316;2022-12-18T00:11:04;43.73;;;16.90;;
6825;SDS011;3451;52.476;13.316;2022-12-18T00:13:32;41.07;;;17.03;;
6825;SDS011;3451;52.476;13.316;2022-12-18T00:16:02;48.90;;;17.43;;
6825;SDS011;3451;52.476;13.316;2022-12-18T00:18:29;39.67;;;15.90;;
6825;SDS011;3451;52.476;13.316;2022-12-18T00:20:58;41.07;;;16.40;;
6825;SDS011;3451;52.476;13.316;2022-12-18T00:23:24;44.03;;;16.63;;
6825;SDS011;3451;52.476;13.316;2022-12-18T00:25:52;40.90;;;17.60;;
6825;SDS011;3451;52.476;13.316;2022-12-18T00:28:18;46.53;;;17.80;;
6825;SDS011;3451;52.476;13.316;2022-12-18T00:30:44;41.20;;;16.40;;
6825;SDS011;3451;52.476;13.316;2022-12-18T00:33:11;43.97;;;17.77;;
6825;SDS011;3451;52.476;13.316;2022-12-18T00:35:37;49.00;;;18.03;;
6825;SDS011;3451;52.476;13.316;2022-12-18T00:38:03;44.40;;;18.00;;
6825;SDS011;3451;52.476;13.316;2022-12-18T00:40:31;56.87;;;19.47;;
6825;SDS011;3451;52.476;13.316;2022-12-18T00:42:57;48.33;;;17.67;;
6825;SDS011;3451;52.476;13.316;2022-12-18T00:45:28;44.73;;;18.60;;
6825;SDS011;3451;52.476;13.316;2022-12-18T00:47:55;46.93;;;18.93;;
6825;SDS011;3451;52.476;13.316;2022-12-18T00:50:22;46.07;;;17.97;;
6825;SDS011;3451;52.476;13.316;2022-12-18T00:52:48;51.43;;;18.57;;
6825;SDS011;3451;52.476;13.316;2022-12-18T00:55:15;46.97;;;17.80;;
6825;SDS011;3451;52.476;13.316;2022-12-18T00:57:41;52.97;;;19.50;;
6825;SDS011;3451;52.476;13.316;2022-12-18T01:00:09;50.07;;;18.63;;
6825;SDS011;3451;52.476;13.316;2022-12-18T01:02:36;42.67;;;18.10;;
6825;SDS011;3451;52.476;13.316;2022-12-18T01:05:03;47.27;;;18.50;;
6825;SDS011;3451;52.476;13.316;2022-12-18T01:07:30;49.17;;;18.63;;
6825;SDS011;3451;52.476;13.316;2022-12-18T01:09:56;47.60;;;18.53;;
6825;SDS011;3451;52.476;13.316;2022-12-18T01:12:22;47.77;;;19.33;;
6825;SDS011;3451;52.476;13.316;2022-12-18T01:14:49;53.63;;;18.93;;
6825;SDS011;3451;52.476;13.316;2022-12-18T01:17:15;48.73;;;19.07;;
6825;SDS011;3451;52.476;13.316;2022-12-18T01:19:41;51.53;;;20.07;;
6825;SDS011;3451;52.476;13.316;2022-12-18T01:22:07;46.80;;;18.17;;
6825;SDS011;3451;52.476;13.316;2022-12-18T01:24:34;49.17;;;19.27;;
6825;SDS011;3451;52.476;13.316;2022-12-18T01:27:00;50.53;;;19.27;;
6825;SDS011;3451;52.476;13.316;2022-12-18T01:29:26;55.73;;;20.37;;
6825;SDS011;3451;52.476;13.316;2022-12-18T01:31:54;47.93;;;19.10;;
6825;SDS011;3451;52.476;13.316;2022-12-18T01:34:21;50.90;;;19.67;;
6825;SDS011;3451;52.476;13.316;2022-12-18T01:36:47;61.93;;;20.47;;
6825;SDS011;3451;52.476;13.316;2022-12-18T01:39:14;54.07;;;18.97;;
6825;SDS011;3451;52.476;13.316;2022-12-18T01:41:41;50.00;;;18.13;;
6825;SDS011;3451;52.476;13.316;2022-12-18T01:47:15;45.00;;;16.73;;
6825;SDS011;3451;52.476;13.316;2022-12-18T01:49:44;47.40;;;17.93;;
6825;SDS011;3451;52.476;13.316;2022-12-18T01:52:10;47.17;;;17.37;;
6825;SDS011;3451;52.476;13.316;2022-12-18T01:54:36;47.10;;;18.50;;
6825;SDS011;3451;52.476;13.316;2022-12-18T01:57:03;49.33;;;17.13;;
6825;SDS011;3451;52.476;13.316;2022-12-18T01:59:35;48.73;;;19.73;;
6825;SDS011;3451;52.476;13.316;2022-12-18T02:02:03;54.17;;;18.93;;
6825;SDS011;3451;52.476;13.316;2022-12-18T02:04:29;49.13;;;19.03;;
6825;SDS011;3451;52.476;13.316;2022-12-18T02:09:44;47.97;;;18.57;;
6825;SDS011;3451;52.476;13.316;2022-12-18T02:12:16;41.37;;;16.93;;
6825;SDS011;3451;52.476;13.316;2022-12-18T02:14:45;50.37;;;16.70;;
6825;SDS011;3451;52.476;13.316;2022-12-18T02:17:19;51.50;;;19.50;;
6825;SDS011;3451;52.476;13.316;2022-12-18T02:20:01;55.47;;;19.70;;
6825;SDS011;3451;52.476;13.316;2022-12-18T02:25:05;52.73;;;18.53;;
6825;SDS011;3451;52.476;13.316;2022-12-18T02:27:36;43.63;;;16.50;;
6825;SDS011;3451;52.476;13.316;2022-12-18T02:30:03;47.40;;;18.30;;
6825;SDS011;3451;52.476;13.316;2022-12-18T02:32:31;44.90;;;18.33;;
6825;SDS011;3451;52.476;13.316;2022-12-18T02:34:58;46.17;;;18.37;;
6825;SDS011;3451;52.476;13.316;2022-12-18T02:37:25;41.20;;;16.67;;
6825;SDS011;3451;52.476;13.316;2022-12-18T02:39:54;47.43;;;17.77;;
6825;SDS011;3451;52.476;13.316;2022-12-18T02:42:22;44.73;;;16.70;;
6825;SDS011;3451;52.476;13.316;2022-12-18T02:44:48;45.70;;;17.40;;
6825;SDS011;3451;52.476;13.316;2022-12-18T02:47:16;46.80;;;18.37;;
6825;SDS011;3451;52.476;13.316;2022-12-18T02:50:05;40.70;;;17.27;;
6825;SDS011;3451;52.476;13.316;2022-12-18T02:55:37;44.43;;;17.97;;
6825;SDS011;3451;52.476;13.316;2022-12-18T03:00:58;44.77;;;17.13;;
6825;SDS011;3451;52.476;13.316;2022-12-18T03:03:29;42.13;;;16.77;;
6825;SDS011;3451;52.476;13.316;2022-12-18T03:06:00;49.50;;;18.13;;
6825;SDS011;3451;52.476;13.316;2022-12-18T03:08:28;49.00;;;18.20;;
6825;SDS011;3451;52.476;13.316;2022-12-18T03:10:59;47.43;;;17.87;;
6825;SDS011;3451;52.476;13.316;2022-12-18T03:13:29;50.83;;;19.17;;
6825;SDS011;3451;52.476;13.316;2022-12-18T03:15:57;42.97;;;17.47;;
6825;SDS011;3451;52.476;13.316;2022-12-18T03:21:02;49.83;;;18.10;;
6825;SDS011;3451;52.476;13.316;2022-12-18T03:23:32;58.07;;;20.27;;
6825;SDS011;3451;52.476;13.316;2022-12-18T03:26:01;47.10;;;17.97;;
6825;SDS011;3451;52.476;13.316;2022-12-18T03:28:33;48.03;;;18.60;;
6825;SDS011;3451;52.476;13.316;2022-12-18T03:31:02;52.83;;;18.13;;
6825;SDS011;3451;52.476;13.316;2022-12-18T03:33:32;47.33;;;18.43;;
6825;SDS011;3451;52.476;13.316;2022-12-18T03:36:00;46.27;;;18.33;;
6825;SDS011;3451;52.476;13.316;2022-12-18T03:38:27;45.07;;;17.20;;
6825;SDS011;3451;52.476;13.316;2022-12-18T03:41:02;45.77;;;18.40;;
6825;SDS011;3451;52.476;13.316;2022-12-18T03:43:43;46.80;;;18.27;;
6825;SDS011;3451;52.476;13.316;2022-12-18T03:46:15;49.93;;;18.33;;
6825;SDS011;3451;52.476;13.316;2022-12-18T03:48:44;48.90;;;17.53;;
6825;SDS011;3451;52.476;13.316;2022-12-18T03:51:39;45.73;;;17.73;;
6825;SDS011;3451;52.476;13.316;2022-12-18T03:54:02;52.80;;;19.93;;
6825;SDS011;3451;52.476;13.316;2022-12-18T03:56:31;63.43;;;20.97;;
6825;SDS011;3451;52.476;13.316;2022-12-18T03:58:58;57.37;;;20.83;;
6825;SDS011;3451;52.476;13.316;2022-12-18T04:01:31;63.17;;;20.10;;
6825;SDS011;3451;52.476;13.316;2022-12-18T04:03:59;47.97;;;18.93;;
6825;SDS011;3451;52.476;13.316;2022-12-18T04:06:26;56.07;;;20.40;;
6825;SDS011;3451;52.476;13.316;2022-12-18T04:08:52;56.70;;;19.97;;
6825;SDS011;3451;52.476;13.316;2022-12-18T04:11:19;50.00;;;17.43;;
6825;SDS011;3451;52.476;13.316;2022-12-18T04:13:45;57.27;;;20.00;;
6825;SDS011;3451;52.476;13.316;2022-12-18T04:16:11;53.47;;;20.73;;
6825;SDS011;3451;52.476;13.316;2022-12-18T04:18:38;56.20;;;20.43;;
6825;SDS011;3451;52.476;13.316;2022-12-18T04:21:04;61.83;;;23.30;;
6825;SDS011;3451;52.476;13.316;2022-12-18T04:23:30;65.87;;;21.93;;
6825;SDS011;3451;52.476;13.316;2022-12-18T04:25:56;61.93;;;22.83;;
6825;SDS011;3451;52.476;13.316;2022-12-18T04:28:23;63.70;;;21.53;;
6825;SDS011;3451;52.476;13.316;2022-12-18T04:30:49;71.80;;;21.77;;
6825;SDS011;3451;52.476;13.316;2022-12-18T04:33:18;66.83;;;22.23;;
6825;SDS011;3451;52.476;13.316;2022-12-18T04:35:44;60.33;;;20.90;;
6825;SDS011;3451;52.476;13.316;2022-12-18T04:38:11;74.27;;;23.27;;
6825;SDS011;3451;52.476;13.316;2022-12-18T04:40:37;60.43;;;22.37;;
6825;SDS011;3451;52.476;13.316;2022-12-18T04:43:04;73.03;;;24.47;;
6825;SDS011;3451;52.476;13.316;2022-12-18T04:45:31;70.93;;;24.87;;
6825;SDS011;3451;52.476;13.316;2022-12-18T04:47:57;75.00;;;23.87;;
6825;SDS011;3451;52.476;13.316;2022-12-18T04:50:25;74.20;;;25.53;;
6825;SDS011;3451;52.476;13.316;2022-12-18T04:52:51;70.43;;;24.50;;
6825;SDS011;3451;52.476;13.316;2022-12-18T04:55:17;83.90;;;26.73;;
6825;SDS011;3451;52.476;13.316;2022-12-18T04:57:43;74.00;;;25.10;;
6825;SDS011;3451;52.476;13.316;2022-12-18T05:00:10;75.13;;;26.47;;
6825;SDS011;3451;52.476;13.316;2022-12-18T05:02:36;80.90;;;27.47;;
6825;SDS011;3451;52.476;13.316;2022-12-18T05:05:03;92.77;;;28.10;;
6825;SDS011;3451;52.476;13.316;2022-12-18T05:07:29;79.00;;;27.60;;
6825;SDS011;3451;52.476;13.316;2022-12-18T05:09:55;90.83;;;28.80;;
6825;SDS011;3451;52.476;13.316;2022-12-18T05:12:24;98.80;;;30.33;;
6825;SDS011;3451;52.476;13.316;2022-12-18T05:14:51;82.73;;;26.80;;
6825;SDS011;3451;52.476;13.316;2022-12-18T05:17:17;94.27;;;29.07;;
6825;SDS011;3451;52.476;13.316;2022-12-18T05:19:43;102.03;;;30.23;;
6825;SDS011;3451;52.476;13.316;2022-12-18T05:22:10;86.57;;;29.47;;
6825;SDS011;3451;52.476;13.316;2022-12-18T05:24:36;95.20;;;30.17;;
6825;SDS011;3451;52.476;13.316;2022-12-18T05:27:02;88.93;;;30.57;;
6825;SDS011;3451;52.476;13.316;2022-12-18T05:29:28;101.10;;;29.60;;
6825;SDS011;3451;52.476;13.316;2022-12-18T05:31:55;91.03;;;28.17;;
6825;SDS011;3451;52.476;13.316;2022-12-18T05:34:21;78.20;;;26.77;;
6825;SDS011;3451;52.476;13.316;2022-12-18T05:36:47;82.07;;;27.40;;
6825;SDS011;3451;52.476;13.316;2022-12-18T05:39:14;80.17;;;25.63;;
6825;SDS011;3451;52.476;13.316;2022-12-18T05:41:40;80.27;;;25.70;;
6825;SDS011;3451;52.476;13.316;2022-12-18T05:44:06;71.93;;;24.07;;
6825;SDS011;3451;52.476;13.316;2022-12-18T05:46:34;75.10;;;25.13;;
6825;SDS011;3451;52.476;13.316;2022-12-18T05:49:00;79.40;;;26.33;;
6825;SDS011;3451;52.476;13.316;2022-12-18T05:51:27;62.63;;;24.17;;
6825;SDS011;3451;52.476;13.316;2022-12-18T05:53:53;67.73;;;25.30;;
6825;SDS011;3451;52.476;13.316;2022-12-18T05:56:20;77.47;;;25.40;;
6825;SDS011;3451;52.476;13.316;2022-12-18T05:58:47;72.57;;;24.17;;
6825;SDS011;3451;52.476;13.316;2022-12-18T06:01:15;63.33;;;23.50;;
6825;SDS011;3451;52.476;13.316;2022-12-18T06:03:42;65.17;;;22.10;;
6825;SDS011;3451;52.476;13.316;2022-12-18T06:06:16;54.03;;;22.23;;
6825;SDS011;3451;52.476;13.316;2022-12-18T06:08:43;54.50;;;21.67;;
6825;SDS011;3451;52.476;13.316;2022-12-18T06:11:11;65.40;;;22.47;;
6825;SDS011;3451;52.476;13.316;2022-12-18T06:13:38;58.17;;;22.23;;
6825;SDS011;3451;52.476;13.316;2022-12-18T06:16:05;57.90;;;21.57;;
6825;SDS011;3451;52.476;13.316;2022-12-18T06:18:32;60.43;;;23.07;;
6825;SDS011;3451;52.476;13.316;2022-12-18T06:20:58;73.13;;;23.37;;
6825;SDS011;3451;52.476;13.316;2022-12-18T06:23:25;71.37;;;23.60;;
6825;SDS011;3451;52.476;13.316;2022-12-18T06:25:51;73.80;;;24.97;;
6825;SDS011;3451;52.476;13.316;2022-12-18T06:28:18;63.77;;;24.97;;
6825;SDS011;3451;52.476;13.316;2022-12-18T06:30:46;70.23;;;24.77;;
6825;SDS011;3451;52.476;13.316;2022-12-18T06:33:13;75.17;;;26.47;;
6825;SDS011;3451;52.476;13.316;2022-12-18T06:35:39;85.17;;;27.13;;
6825;SDS011;3451;52.476;13.316;2022-12-18T06:38:06;85.60;;;28.10;;
6825;SDS011;3451;52.476;13.316;2022-12-18T06:40:33;74.47;;;24.20;;
6825;SDS011;3451;52.476;13.316;2022-12-18T06:42:59;67.83;;;24.57;;
6825;SDS011;3451;52.476;13.316;2022-12-18T06:45:25;72.60;;;25.10;;
6825;SDS011;3451;52.476;13.316;2022-12-18T06:47:52;76.97;;;26.50;;
6825;SDS011;3451;52.476;13.316;2022-12-18T06:50:19;75.03;;;24.27;;
6825;SDS011;3451;52.476;13.316;2022-12-18T06:52:45;65.37;;;23.53;;
6825;SDS011;3451;52.476;13.316;2022-12-18T06:55:12;69.57;;;24.20;;
6825;SDS011;3451;52.476;13.316;2022-12-18T06:57:38;69.90;;;25.20;;
6825;SDS011;3451;52.476;13.316;2022-12-18T07:00:05;70.80;;;25.73;;
6825;SDS011;3451;52.476;13.316;2022-12-18T07:02:31;69.50;;;24.57;;
6825;SDS011;3451;52.476;13.316;2022-12-18T07:04:58;74.00;;;26.47;;
6825;SDS011;3451;52.476;13.316;2022-12-18T07:07:24;74.40;;;26.57;;
6825;SDS011;3451;52.476;13.316;2022-12-18T07:09:50;85.03;;;28.10;;
6825;SDS011;3451;52.476;13.316;2022-12-18T07:12:17;85.10;;;27.37;;
6825;SDS011;3451;52.476;13.316;2022-12-18T07:14:43;78.63;;;26.80;;
6825;SDS011;3451;52.476;13.316;2022-12-18T07:17:09;90.13;;;27.27;;
6825;SDS011;3451;52.476;13.316;2022-12-18T07:19:36;77.27;;;26.37;;
6825;SDS011;3451;52.476;13.316;2022-12-18T07:22:02;80.37;;;26.67;;
6825;SDS011;3451;52.476;13.316;2022-12-18T07:24:29;84.27;;;27.63;;
6825;SDS011;3451;52.476;13.316;2022-12-18T07:26:55;78.53;;;25.93;;
6825;SDS011;3451;52.476;13.316;2022-12-18T07:29:22;89.37;;;28.23;;
6825;SDS011;3451;52.476;13.316;2022-12-18T07:31:48;82.07;;;26.57;;
6825;SDS011;3451;52.476;13.316;2022-12-18T07:34:15;73.40;;;25.43;;
6825;SDS011;3451;52.476;13.316;2022-12-18T07:36:41;77.23;;;26.13;;
6825;SDS011;3451;52.476;13.316;2022-12-18T07:39:07;68.17;;;23.97;;
6825;SDS011;3451;52.476;13.316;2022-12-18T07:41:34;60.47;;;23.30;;
6825;SDS011;3451;52.476;13.316;2022-12-18T07:44:00;64.30;;;23.07;;
6825;SDS011;3451;52.476;13.316;2022-12-18T07:46:26;67.43;;;20.87;;
6825;SDS011;3451;52.476;13.316;2022-12-18T07:48:52;55.27;;;20.37;;
6825;SDS011;3451;52.476;13.316;2022-12-18T07:51:19;54.90;;;21.80;;
6825;SDS011;3451;52.476;13.316;2022-12-18T07:53:45;54.97;;;21.07;;
6825;SDS011;3451;52.476;13.316;2022-12-18T07:56:16;49.10;;;20.67;;
6825;SDS011;3451;52.476;13.316;2022-12-18T07:58:53;57.83;;;21.37;;
6825;SDS011;3451;52.476;13.316;2022-12-18T08:01:19;57.93;;;20.80;;
6825;SDS011;3451;52.476;13.316;2022-12-18T08:03:46;54.00;;;21.53;;
6825;SDS011;3451;52.476;13.316;2022-12-18T08:06:13;56.87;;;21.07;;
6825;SDS011;3451;52.476;13.316;2022-12-18T08:08:39;48.53;;;19.90;;
6825;SDS011;3451;52.476;13.316;2022-12-18T08:11:07;56.40;;;20.43;;
6825;SDS011;3451;52.476;13.316;2022-12-18T08:13:33;57.67;;;21.37;;
6825;SDS011;3451;52.476;13.316;2022-12-18T08:16:04;50.60;;;21.23;;
6825;SDS011;3451;52.476;13.316;2022-12-18T08:18:34;61.10;;;20.23;;
6825;SDS011;3451;52.476;13.316;2022-12-18T08:21:11;56.17;;;21.40;;
6825;SDS011;3451;52.476;13.316;2022-12-18T08:23:37;55.87;;;20.73;;
6825;SDS011;3451;52.476;13.316;2022-12-18T08:26:08;54.90;;;19.43;;
6825;SDS011;3451;52.476;13.316;2022-12-18T08:28:34;61.17;;;20.17;;
6825;SDS011;3451;52.476;13.316;2022-12-18T08:31:00;52.30;;;19.60;;
6825;SDS011;3451;52.476;13.316;2022-12-18T08:33:27;54.23;;;21.07;;
6825;SDS011;3451;52.476;13.316;2022-12-18T08:35:53;57.27;;;21.03;;
6825;SDS011;3451;52.476;13.316;2022-12-18T08:38:19;55.53;;;21.13;;
6825;SDS011;3451;52.476;13.316;2022-12-18T08:40:46;53.37;;;20.47;;
6825;SDS011;3451;52.476;13.316;2022-12-18T08:43:12;53.70;;;20.97;;
6825;SDS011;3451;52.476;13.316;2022-12-18T08:45:57;61.70;;;22.00;;
6825;SDS011;3451;52.476;13.316;2022-12-18T08:48:23;54.30;;;19.47;;
6825;SDS011;3451;52.476;13.316;2022-12-18T08:50:56;68.67;;;22.83;;
6825;SDS011;3451;52.476;13.316;2022-12-18T08:53:25;56.33;;;21.47;;
6825;SDS011;3451;52.476;13.316;2022-12-18T08:55:57;55.90;;;22.10;;
6825;SDS011;3451;52.476;13.316;2022-12-18T08:58:24;65.30;;;22.00;;
6825;SDS011;3451;52.476;13.316;2022-12-18T09:00:50;56.17;;;19.77;;
6825;SDS011;3451;52.476;13.316;2022-12-18T09:03:17;54.23;;;20.10;;
6825;SDS011;3451;52.476;13.316;2022-12-18T09:05:45;53.93;;;20.20;;
6825;SDS011;3451;52.476;13.316;2022-12-18T09:08:11;57.07;;;20.10;;
6825;SDS011;3451;52.476;13.316;2022-12-18T09:10:41;48.87;;;18.83;;
6825;SDS011;3451;52.476;13.316;2022-12-18T09:13:09;52.33;;;18.70;;
6825;SDS011;3451;52.476;13.316;2022-12-18T09:15:40;52.07;;;19.87;;
6825;SDS011;3451;52.476;13.316;2022-12-18T09:18:06;59.23;;;20.00;;
6825;SDS011;3451;52.476;13.316;2022-12-18T09:20:32;49.07;;;19.23;;
6825;SDS011;3451;52.476;13.316;2022-12-18T09:22:58;46.20;;;18.73;;
6825;SDS011;3451;52.476;13.316;2022-12-18T09:25:24;52.00;;;20.20;;
6825;SDS011;3451;52.476;13.316;2022-12-18T09:27:51;53.47;;;19.93;;
6825;SDS011;3451;52.476;13.316;2022-12-18T09:30:17;52.37;;;19.80;;
6825;SDS011;3451;52.476;13.316;2022-12-18T09:32:43;49.13;;;18.97;;
6825;SDS011;3451;52.476;13.316;2022-12-18T09:35:09;52.73;;;19.03;;
6825;SDS011;3451;52.476;13.316;2022-12-18T09:37:36;59.40;;;20.33;;
6825;SDS011;3451;52.476;13.316;2022-12-18T09:40:02;49.90;;;20.00;;
6825;SDS011;3451;52.476;13.316;2022-12-18T09:42:28;50.10;;;19.07;;
6825;SDS011;3451;52.476;13.316;2022-12-18T09:44:55;53.00;;;21.03;;
6825;SDS011;3451;52.476;13.316;2022-12-18T09:47:23;53.30;;;20.77;;
6825;SDS011;3451;52.476;13.316;2022-12-18T09:50:01;46.87;;;20.27;;
6825;SDS011;3451;52.476;13.316;2022-12-18T09:52:35;57.00;;;21.27;;
6825;SDS011;3451;52.476;13.316;2022-12-18T09:57:51;47.57;;;18.80;;
6825;SDS011;3451;52.476;13.316;2022-12-18T10:00:20;56.87;;;20.60;;
6825;SDS011;3451;52.476;13.316;2022-12-18T10:02:47;51.33;;;18.57;;
6825;SDS011;3451;52.476;13.316;2022-12-18T10:05:25;50.40;;;19.40;;
6825;SDS011;3451;52.476;13.316;2022-12-18T10:10:59;46.83;;;18.67;;
6825;SDS011;3451;52.476;13.316;2022-12-18T10:15:59;47.97;;;19.60;;
6825;SDS011;3451;52.476;13.316;2022-12-18T10:18:54;46.93;;;19.13;;
6825;SDS011;3451;52.476;13.316;2022-12-18T10:21:33;46.70;;;19.00;;
6825;SDS011;3451;52.476;13.316;2022-12-18T10:24:12;43.43;;;18.60;;
6825;SDS011;3451;52.476;13.316;2022-12-18T10:26:41;54.50;;;20.87;;
6825;SDS011;3451;52.476;13.316;2022-12-18T10:29:09;49.57;;;18.80;;
6825;SDS011;3451;52.476;13.316;2022-12-18T10:31:38;45.40;;;18.87;;
6825;SDS011;3451;52.476;13.316;2022-12-18T10:34:04;46.93;;;19.17;;
6825;SDS011;3451;52.476;13.316;2022-12-18T10:36:30;44.70;;;18.40;;
6825;SDS011;3451;52.476;13.316;2022-12-18T10:41:41;44.30;;;16.83;;
6825;SDS011;3451;52.476;13.316;2022-12-18T10:44:12;45.50;;;17.57;;
6825;SDS011;3451;52.476;13.316;2022-12-18T10:46:38;47.57;;;18.50;;
6825;SDS011;3451;52.476;13.316;2022-12-18T10:49:05;50.93;;;18.57;;
6825;SDS011;3451;52.476;13.316;2022-12-18T10:51:35;47.27;;;18.60;;
6825;SDS011;3451;52.476;13.316;2022-12-18T10:54:03;45.93;;;18.37;;
6825;SDS011;3451;52.476;13.316;2022-12-18T10:56:32;48.93;;;19.23;;
6825;SDS011;3451;52.476;13.316;2022-12-18T10:59:03;51.20;;;20.53;;
6825;SDS011;3451;52.476;13.316;2022-12-18T11:01:47;49.70;;;20.10;;
6825;SDS011;3451;52.476;13.316;2022-12-18T11:04:27;45.30;;;19.27;;
6825;SDS011;3451;52.476;13.316;2022-12-18T11:06:55;52.67;;;21.13;;
6825;SDS011;3451;52.476;13.316;2022-12-18T11:09:23;55.67;;;21.03;;
6825;SDS011;3451;52.476;13.316;2022-12-18T11:11:50;56.47;;;19.90;;
6825;SDS011;3451;52.476;13.316;2022-12-18T11:14:20;42.03;;;18.17;;
6825;SDS011;3451;52.476;13.316;2022-12-18T11:16:47;50.50;;;19.30;;
6825;SDS011;3451;52.476;13.316;2022-12-18T11:19:38;52.77;;;19.13;;
6825;SDS011;3451;52.476;13.316;2022-12-18T11:22:25;48.17;;;19.60;;
6825;SDS011;3451;52.476;13.316;2022-12-18T11:24:59;48.43;;;19.10;;
6825;SDS011;3451;52.476;13.316;2022-12-18T11:27:47;47.70;;;18.80;;
6825;SDS011;3451;52.476;13.316;2022-12-18T11:30:21;42.27;;;17.60;;
6825;SDS011;3451;52.476;13.316;2022-12-18T11:32:49;46.87;;;18.33;;
6825;SDS011;3451;52.476;13.316;2022-12-18T11:35:18;44.97;;;18.77;;
6825;SDS011;3451;52.476;13.316;2022-12-18T11:37:57;44.57;;;19.03;;
6825;SDS011;3451;52.476;13.316;2022-12-18T11:40:27;44.73;;;18.77;;
6825;SDS011;3451;52.476;13.316;2022-12-18T11:43:18;47.53;;;18.87;;
6825;SDS011;3451;52.476;13.316;2022-12-18T11:45:48;44.63;;;18.67;;
6825;SDS011;3451;52.476;13.316;2022-12-18T11:48:18;44.63;;;19.53;;
6825;SDS011;3451;52.476;13.316;2022-12-18T11:50:54;43.60;;;18.83;;
6825;SDS011;3451;52.476;13.316;2022-12-18T11:53:21;47.20;;;18.77;;
6825;SDS011;3451;52.476;13.316;2022-12-18T11:56:02;45.07;;;17.60;;
6825;SDS011;3451;52.476;13.316;2022-12-18T11:58:39;50.17;;;19.73;;
6825;SDS011;3451;52.476;13.316;2022-12-18T12:01:17;45.80;;;18.97;;
6825;SDS011;3451;52.476;13.316;2022-12-18T12:03:54;48.80;;;19.50;;
6825;SDS011;3451;52.476;13.316;2022-12-18T12:06:28;43.23;;;18.40;;
6825;SDS011;3451;52.476;13.316;2022-12-18T12:09:11;44.20;;;18.23;;
6825;SDS011;3451;52.476;13.316;2022-12-18T12:11:52;49.10;;;19.47;;
6825;SDS011;3451;52.476;13.316;2022-12-18T12:14:42;49.70;;;19.73;;
6825;SDS011;3451;52.476;13.316;2022-12-18T12:17:14;46.70;;;18.43;;
6825;SDS011;3451;52.476;13.316;2022-12-18T12:19:46;46.23;;;19.10;;
6825;SDS011;3451;52.476;13.316;2022-12-18T12:22:22;48.93;;;19.87;;
6825;SDS011;3451;52.476;13.316;2022-12-18T12:25:02;45.90;;;19.23;;
6825;SDS011;3451;52.476;13.316;2022-12-18T12:30:18;46.47;;;19.20;;
6825;SDS011;3451;52.476;13.316;2022-12-18T12:35:31;50.63;;;19.37;;
6825;SDS011;3451;52.476;13.316;2022-12-18T12:38:11;45.67;;;19.33;;
6825;SDS011;3451;52.476;13.316;2022-12-18T12:40:41;44.50;;;18.53;;
6825;SDS011;3451;52.476;13.316;2022-12-18T12:43:32;42.20;;;18.10;;
6825;SDS011;3451;52.476;13.316;2022-12-18T12:46:04;54.47;;;19.67;;
6825;SDS011;3451;52.476;13.316;2022-12-18T12:48:48;50.17;;;19.47;;
6825;SDS011;3451;52.476;13.316;2022-12-18T12:51:17;42.53;;;19.57;;
6825;SDS011;3451;52.476;13.316;2022-12-18T12:53:45;47.73;;;19.50;;
6825;SDS011;3451;52.476;13.316;2022-12-18T12:56:13;48.13;;;18.97;;
6825;SDS011;3451;52.476;13.316;2022-12-18T12:58:51;51.47;;;20.50;;
6825;SDS011;3451;52.476;13.316;2022-12-18T13:01:23;46.27;;;20.70;;
6825;SDS011;3451;52.476;13.316;2022-12-18T13:06:28;43.33;;;20.47;;
6825;SDS011;3451;52.476;13.316;2022-12-18T13:08:57;42.87;;;18.77;;
6825;SDS011;3451;52.476;13.316;2022-12-18T13:11:43;46.43;;;21.13;;
6825;SDS011;3451;52.476;13.316;2022-12-18T13:14:30;49.43;;;20.80;;
6825;SDS011;3451;52.476;13.316;2022-12-18T13:19:41;40.30;;;19.17;;
6825;SDS011;3451;52.476;13.316;2022-12-18T13:22:21;42.60;;;19.20;;
6825;SDS011;3451;52.476;13.316;2022-12-18T13:24:48;43.90;;;19.57;;
6825;SDS011;3451;52.476;13.316;2022-12-18T13:30:00;40.00;;;19.97;;
6825;SDS011;3451;52.476;13.316;2022-12-18T13:32:26;46.30;;;21.70;;
6825;SDS011;3451;52.476;13.316;2022-12-18T13:37:39;47.73;;;21.17;;
6825;SDS011;3451;52.476;13.316;2022-12-18T13:42:51;44.27;;;20.70;;
6825;SDS011;3451;52.476;13.316;2022-12-18T13:45:39;48.20;;;21.53;;
6825;SDS011;3451;52.476;13.316;2022-12-18T13:48:12;43.50;;;19.87;;
6825;SDS011;3451;52.476;13.316;2022-12-18T13:50:41;39.63;;;19.93;;
6825;SDS011;3451;52.476;13.316;2022-12-18T13:53:13;42.60;;;20.13;;
6825;SDS011;3451;52.476;13.316;2022-12-18T13:55:44;42.20;;;19.90;;
6825;SDS011;3451;52.476;13.316;2022-12-18T13:58:11;44.20;;;21.07;;
6825;SDS011;3451;52.476;13.316;2022-12-18T14:00:41;41.03;;;20.87;;
6825;SDS011;3451;52.476;13.316;2022-12-18T14:03:19;41.53;;;21.10;;
6825;SDS011;3451;52.476;13.316;2022-12-18T14:05:52;47.73;;;22.50;;
6825;SDS011;3451;52.476;13.316;2022-12-18T14:08:18;42.70;;;19.83;;
6825;SDS011;3451;52.476;13.316;2022-12-18T14:10:46;46.30;;;21.27;;
6825;SDS011;3451;52.476;13.316;2022-12-18T14:13:17;46.37;;;21.33;;
6825;SDS011;3451;52.476;13.316;2022-12-18T14:15:46;46.90;;;21.57;;
6825;SDS011;3451;52.476;13.316;2022-12-18T14:18:17;44.77;;;21.33;;
6825;SDS011;3451;52.476;13.316;2022-12-18T14:20:45;50.87;;;22.50;;
6825;SDS011;3451;52.476;13.316;2022-12-18T14:23:28;49.40;;;22.13;;
6825;SDS011;3451;52.476;13.316;2022-12-18T14:25:54;54.33;;;22.43;;
6825;SDS011;3451;52.476;13.316;2022-12-18T14:28:27;61.53;;;25.67;;
6825;SDS011;3451;52.476;13.316;2022-12-18T14:30:53;55.97;;;24.77;;
6825;SDS011;3451;52.476;13.316;2022-12-18T14:33:22;72.03;;;27.77;;
6825;SDS011;3451;52.476;13.316;2022-12-18T14:35:53;66.90;;;27.67;;
6825;SDS011;3451;52.476;13.316;2022-12-18T14:38:23;61.93;;;26.90;;
6825;SDS011;3451;52.476;13.316;2022-12-18T14:41:33;62.03;;;28.10;;
6825;SDS011;3451;52.476;13.316;2022-12-18T14:43:40;60.83;;;25.97;;
6825;SDS011;3451;52.476;13.316;2022-12-18T14:48:53;63.53;;;26.27;;
6825;SDS011;3451;52.476;13.316;2022-12-18T14:51:20;61.87;;;25.70;;
6825;SDS011;3451;52.476;13.316;2022-12-18T14:56:23;66.00;;;27.53;;
6825;SDS011;3451;52.476;13.316;2022-12-18T14:58:54;71.30;;;27.97;;
6825;SDS011;3451;52.476;13.316;2022-12-18T15:01:37;63.90;;;27.67;;
6825;SDS011;3451;52.476;13.316;2022-12-18T15:04:05;56.90;;;25.13;;
6825;SDS011;3451;52.476;13.316;2022-12-18T15:06:49;50.43;;;23.13;;
6825;SDS011;3451;52.476;13.316;2022-12-18T15:09:28;45.00;;;21.63;;
6825;SDS011;3451;52.476;13.316;2022-12-18T15:11:55;40.30;;;21.37;;
6825;SDS011;3451;52.476;13.316;2022-12-18T15:14:43;42.90;;;21.80;;
6825;SDS011;3451;52.476;13.316;2022-12-18T15:17:18;43.67;;;20.30;;
6825;SDS011;3451;52.476;13.316;2022-12-18T15:19:46;43.43;;;21.40;;
6825;SDS011;3451;52.476;13.316;2022-12-18T15:22:16;43.67;;;20.77;;
6825;SDS011;3451;52.476;13.316;2022-12-18T15:24:43;39.90;;;20.10;;
6825;SDS011;3451;52.476;13.316;2022-12-18T15:27:20;40.47;;;19.83;;
6825;SDS011;3451;52.476;13.316;2022-12-18T15:29:59;39.50;;;18.30;;
6825;SDS011;3451;52.476;13.316;2022-12-18T15:32:25;36.30;;;17.73;;
6825;SDS011;3451;52.476;13.316;2022-12-18T15:35:01;41.03;;;19.60;;
6825;SDS011;3451;52.476;13.316;2022-12-18T15:37:28;36.80;;;18.33;;
6825;SDS011;3451;52.476;13.316;2022-12-18T15:39:54;37.53;;;18.70;;